createdAt,value
2023-02-17T00:01:28.942Z,9.43
2023-02-17T00:03:59.749Z,9.42
2023-02-17T00:06:30.698Z,9.43
2023-02-17T00:08:59.735Z,9.48
2023-02-17T00:11:28.305Z,9.50
2023-02-17T00:13:56.795Z,9.51
2023-02-17T00:16:26.773Z,9.48
2023-02-17T00:18:56.774Z,9.48
2023-02-17T00:21:28.555Z,9.52
2023-02-17T00:23:57.776Z,9.51
2023-02-17T00:26:25.317Z,9.48
2023-02-17T00:28:53.037Z,9.54
2023-02-17T00:31:22.379Z,9.51
2023-02-17T00:33:50.902Z,9.47
2023-02-17T00:36:20.601Z,9.55
2023-02-17T00:38:49.867Z,9.50
2023-02-17T00:41:18.364Z,9.52
2023-02-17T00:43:46.182Z,9.56
2023-02-17T00:46:14.851Z,9.66
2023-02-17T00:48:42.639Z,9.55
2023-02-17T00:51:12.943Z,9.54
2023-02-17T00:53:42.649Z,9.58
2023-02-17T00:56:11.867Z,9.57
2023-02-17T00:58:42.676Z,9.58
2023-02-17T01:01:12.839Z,9.64
2023-02-17T01:03:41.965Z,9.57
2023-02-17T01:06:11.429Z,9.60
2023-02-17T01:08:39.008Z,9.58
2023-02-17T01:11:06.916Z,9.64
2023-02-17T01:13:42.654Z,9.67
2023-02-17T01:16:17.889Z,9.63
2023-02-17T01:18:45.673Z,9.69
2023-02-17T01:21:17.504Z,9.65
2023-02-17T01:23:45.030Z,9.67
2023-02-17T01:26:16.466Z,9.67
2023-02-17T01:28:45.779Z,9.66
2023-02-17T01:31:15.820Z,9.67
2023-02-17T01:33:44.145Z,9.67
2023-02-17T01:36:14.131Z,9.68
2023-02-17T01:38:42.022Z,9.69
2023-02-17T01:41:11.219Z,9.70
2023-02-17T01:43:38.949Z,9.72
2023-02-17T01:46:09.256Z,9.74
2023-02-17T01:48:41.554Z,9.72
2023-02-17T01:51:12.021Z,9.78
2023-02-17T01:53:44.617Z,9.74
2023-02-17T01:56:14.801Z,9.77
2023-02-17T01:58:46.937Z,9.74
2023-02-17T02:01:16.191Z,9.78
2023-02-17T02:03:45.206Z,9.77
2023-02-17T02:06:17.513Z,9.79
2023-02-17T02:08:51.958Z,9.79
2023-02-17T02:11:20.324Z,9.81
2023-02-17T02:13:50.243Z,9.83
2023-02-17T02:16:26.575Z,9.84
2023-02-17T02:19:02.935Z,9.86
2023-02-17T02:22:09.340Z,9.91
2023-02-17T02:24:55.682Z,9.95
2023-02-17T02:27:52.740Z,9.85
2023-02-17T02:30:43.816Z,9.89
2023-02-17T02:33:21.803Z,9.94
2023-02-17T02:35:58.284Z,9.99
2023-02-17T02:38:33.445Z,9.89
2023-02-17T02:41:06.722Z,9.92
2023-02-17T02:43:35.751Z,9.96
2023-02-17T02:46:07.440Z,9.93
2023-02-17T02:48:36.761Z,9.97
2023-02-17T02:51:19.295Z,10.11
2023-02-17T02:54:05.023Z,9.98
2023-02-17T02:56:48.695Z,10.02
2023-02-17T02:59:30.061Z,10.09
2023-02-17T03:02:08.436Z,10.11
2023-02-17T03:04:39.801Z,10.06
2023-02-17T03:07:12.257Z,10.00
2023-02-17T03:09:41.752Z,10.06
2023-02-17T03:12:14.879Z,10.04
2023-02-17T03:14:44.658Z,10.04
2023-02-17T03:17:12.353Z,10.03
2023-02-17T03:19:41.664Z,10.06
2023-02-17T03:22:16.972Z,10.07
2023-02-17T03:25:15.777Z,10.06
2023-02-17T03:27:44.387Z,10.12
2023-02-17T03:30:13.560Z,10.10
2023-02-17T03:32:41.765Z,10.13
2023-02-17T03:35:11.065Z,10.10
2023-02-17T03:37:39.320Z,10.11
2023-02-17T03:40:09.037Z,10.09
2023-02-17T03:42:36.649Z,10.14
2023-02-17T03:45:04.718Z,10.09
2023-02-17T03:47:33.396Z,10.12
2023-02-17T03:50:01.760Z,10.16
2023-02-17T03:52:31.496Z,10.17
2023-02-17T03:54:59.999Z,10.11
2023-02-17T03:57:27.600Z,10.13
2023-02-17T04:00:00.117Z,10.13
2023-02-17T04:02:28.680Z,10.13
2023-02-17T04:04:56.195Z,10.14
2023-02-17T04:07:25.776Z,10.14
2023-02-17T04:09:55.526Z,10.17
2023-02-17T04:12:24.807Z,10.16
2023-02-17T04:14:54.142Z,10.14
2023-02-17T04:17:23.654Z,10.24
2023-02-17T04:19:51.663Z,10.20
2023-02-17T04:22:19.246Z,10.15
2023-02-17T04:24:47.652Z,10.20
2023-02-17T04:27:16.564Z,10.23
2023-02-17T04:29:44.171Z,10.22
2023-02-17T04:32:15.671Z,10.22
2023-02-17T04:34:43.255Z,10.16
2023-02-17T04:37:11.103Z,10.21
2023-02-17T04:39:40.168Z,10.35
2023-02-17T04:42:08.672Z,10.27
2023-02-17T04:44:37.618Z,10.31
2023-02-17T04:47:05.291Z,10.28
2023-02-17T04:49:57.605Z,10.26
2023-02-17T04:52:29.767Z,10.24
2023-02-17T04:54:59.659Z,10.21
2023-02-17T04:57:31.255Z,10.36
2023-02-17T05:00:00.694Z,10.25
2023-02-17T05:02:28.552Z,10.40
2023-02-17T05:04:56.678Z,10.24
2023-02-17T05:07:24.828Z,10.24
2023-02-17T05:09:54.670Z,10.21
2023-02-17T05:12:22.280Z,10.26
2023-02-17T05:14:49.931Z,10.26
2023-02-17T05:17:19.441Z,10.31
2023-02-17T05:20:11.655Z,10.27
2023-02-17T05:22:41.292Z,10.31
2023-02-17T05:25:09.563Z,10.25
2023-02-17T05:27:37.158Z,10.26
2023-02-17T05:30:05.676Z,10.32
2023-02-17T05:32:38.707Z,10.40
2023-02-17T05:35:06.351Z,10.32
2023-02-17T05:37:35.655Z,10.29
2023-02-17T05:40:04.324Z,10.30
2023-02-17T05:42:33.664Z,10.27
2023-02-17T05:45:03.890Z,10.27
2023-02-17T05:47:31.770Z,10.24
2023-02-17T05:50:02.657Z,10.27
2023-02-17T05:52:55.944Z,10.30
2023-02-17T05:55:23.566Z,10.33
2023-02-17T05:57:51.683Z,10.35
2023-02-17T06:00:19.429Z,10.36
2023-02-17T06:02:47.682Z,10.35
2023-02-17T06:05:17.788Z,10.32
2023-02-17T06:07:46.203Z,10.31
2023-02-17T06:10:14.766Z,10.31
2023-02-17T06:12:43.088Z,10.33
2023-02-17T06:15:35.610Z,10.36
2023-02-17T06:18:04.699Z,10.32
2023-02-17T06:20:34.741Z,10.32
2023-02-17T06:23:04.673Z,10.34
2023-02-17T06:25:32.591Z,10.44
2023-02-17T06:28:01.679Z,10.47
2023-02-17T06:30:34.689Z,10.40
2023-02-17T06:33:02.478Z,10.43
2023-02-17T06:35:30.037Z,10.41
2023-02-17T06:38:02.910Z,10.42
2023-02-17T06:40:30.839Z,10.43
2023-02-17T06:43:00.109Z,10.45
2023-02-17T06:45:27.750Z,10.47
2023-02-17T06:47:55.667Z,10.47
2023-02-17T06:50:24.180Z,10.50
2023-02-17T06:55:49.656Z,10.53
2023-02-17T06:58:18.296Z,10.56
2023-02-17T07:00:46.812Z,10.63
2023-02-17T07:16:21.795Z,10.55
2023-02-17T07:18:50.699Z,10.59
2023-02-17T07:21:19.692Z,10.55
2023-02-17T07:23:51.387Z,10.49
2023-02-17T07:26:19.053Z,10.48
2023-02-17T07:28:50.680Z,10.50
2023-02-17T07:31:19.810Z,10.53
2023-02-17T07:33:48.509Z,10.66
2023-02-17T07:36:18.199Z,10.51
2023-02-17T07:38:47.706Z,10.48
2023-02-17T07:41:16.799Z,10.47
2023-02-17T07:43:45.677Z,10.46
2023-02-17T07:46:13.569Z,10.48
2023-02-17T07:48:42.817Z,10.48
2023-02-17T07:51:14.811Z,10.52
2023-02-17T07:53:43.289Z,10.52
2023-02-17T07:56:13.791Z,10.52
2023-02-17T07:59:09.226Z,10.55
2023-02-17T08:01:36.984Z,10.52
2023-02-17T08:04:06.380Z,10.49
2023-02-17T08:06:34.297Z,10.58
2023-02-17T08:09:19.247Z,10.52
2023-02-17T08:12:10.721Z,10.60
2023-02-17T08:14:40.719Z,10.55
2023-02-17T08:17:08.847Z,10.58
2023-02-17T08:19:48.033Z,10.64
2023-02-17T08:22:20.263Z,10.61
2023-02-17T08:24:48.190Z,10.70
2023-02-17T08:27:16.829Z,10.65
2023-02-17T08:29:44.874Z,10.69
2023-02-17T08:32:15.768Z,10.66
2023-02-17T08:34:45.144Z,10.72
2023-02-17T08:37:16.326Z,10.79
2023-02-17T08:39:44.081Z,10.80
2023-02-17T08:42:12.276Z,10.77
2023-02-17T08:44:39.991Z,10.84
2023-02-17T08:47:10.355Z,10.80
2023-02-17T08:49:41.723Z,10.87
2023-02-17T08:52:11.554Z,10.92
2023-02-17T08:54:40.151Z,10.93
2023-02-17T08:57:07.945Z,10.93
2023-02-17T08:59:35.794Z,10.93
2023-02-17T09:02:05.368Z,10.97
2023-02-17T09:04:33.009Z,10.96
2023-02-17T09:07:26.699Z,11.07
2023-02-17T09:09:55.637Z,11.03
2023-02-17T09:12:24.104Z,10.93
2023-02-17T09:14:51.781Z,11.00
2023-02-17T09:17:19.472Z,11.04
2023-02-17T09:19:48.282Z,10.93
2023-02-17T09:22:30.753Z,11.12
2023-02-17T09:25:00.316Z,11.04
2023-02-17T09:27:28.761Z,11.08
2023-02-17T09:29:56.425Z,11.06
2023-02-17T09:32:25.747Z,11.19
2023-02-17T09:35:19.779Z,11.11
2023-02-17T09:42:02.730Z,11.17
2023-02-17T09:44:37.583Z,11.19
2023-02-17T09:47:10.549Z,11.20
2023-02-17T09:50:10.399Z,11.29
2023-02-17T09:52:48.912Z,11.33
2023-02-17T09:55:21.765Z,11.32
2023-02-17T09:57:56.880Z,11.46
2023-02-17T10:00:27.848Z,11.42
2023-02-17T10:03:00.242Z,11.45
2023-02-17T10:05:34.873Z,11.39
2023-02-17T10:08:13.509Z,11.42
2023-02-17T10:10:46.871Z,11.49
2023-02-17T10:13:21.714Z,11.48
2023-02-17T10:15:54.031Z,11.55
2023-02-17T10:18:29.715Z,11.56
2023-02-17T10:21:04.760Z,11.56
2023-02-17T10:23:35.695Z,11.68
2023-02-17T10:26:14.684Z,11.70
2023-02-17T10:28:51.531Z,11.69
2023-02-17T10:31:43.918Z,11.75
2023-02-17T10:34:24.355Z,11.75
2023-02-17T10:37:00.059Z,11.80
2023-02-17T10:39:40.522Z,11.86
2023-02-17T10:42:15.246Z,11.96
2023-02-17T10:45:20.710Z,11.92
2023-02-17T10:47:48.745Z,12.10
2023-02-17T10:50:22.115Z,12.05
2023-02-17T10:52:53.685Z,12.14
2023-02-17T10:55:26.632Z,12.11
2023-02-17T10:58:00.404Z,12.17
2023-02-17T11:00:30.524Z,12.19
2023-02-17T11:02:58.184Z,12.18
2023-02-17T11:05:28.279Z,12.36
2023-02-17T11:07:58.870Z,12.39
2023-02-17T11:10:29.726Z,12.43
2023-02-17T11:12:58.649Z,12.58
2023-02-17T11:15:30.010Z,12.57
2023-02-17T11:18:10.776Z,12.65
2023-02-17T11:20:39.277Z,12.73
2023-02-17T11:23:21.875Z,12.87
2023-02-17T11:26:01.705Z,12.77
2023-02-17T11:28:30.428Z,12.95
2023-02-17T11:31:02.662Z,12.88
2023-02-17T11:33:35.791Z,12.86
2023-02-17T11:36:05.047Z,12.92
2023-02-17T11:38:44.604Z,12.86
2023-02-17T11:41:12.325Z,12.86
2023-02-17T11:43:40.784Z,12.93
2023-02-17T11:46:28.513Z,12.98
2023-02-17T11:49:26.436Z,13.10
2023-02-17T11:52:08.649Z,13.04
2023-02-17T11:54:55.805Z,13.16
2023-02-17T11:57:36.328Z,13.20
2023-02-17T12:00:14.547Z,13.23
2023-02-17T12:02:57.765Z,13.24
2023-02-17T12:05:37.003Z,13.18
2023-02-17T12:08:17.663Z,13.17
2023-02-17T12:10:57.927Z,13.15
2023-02-17T12:13:36.830Z,13.17
2023-02-17T12:16:19.328Z,13.20
2023-02-17T12:19:00.726Z,13.14
2023-02-17T12:21:57.792Z,13.08
2023-02-17T12:24:42.686Z,13.10
2023-02-17T12:27:25.127Z,13.28
2023-02-17T12:30:12.837Z,13.14
2023-02-17T12:32:55.710Z,13.03
2023-02-17T12:35:25.731Z,12.94
2023-02-17T12:37:58.332Z,12.95
2023-02-17T12:43:34.756Z,12.97
2023-02-17T12:46:10.677Z,13.02
2023-02-17T12:48:44.728Z,13.04
2023-02-17T12:51:21.858Z,12.86
2023-02-17T12:53:57.814Z,12.87
2023-02-17T12:57:02.254Z,13.01
2023-02-17T12:59:34.258Z,12.79
2023-02-17T13:02:08.451Z,12.85
2023-02-17T13:04:36.801Z,12.74
2023-02-17T13:07:16.503Z,12.81
2023-02-17T13:09:47.819Z,12.79
2023-02-17T13:12:40.375Z,12.83
2023-02-17T13:15:27.307Z,12.69
2023-02-17T13:17:57.253Z,12.70
2023-02-17T13:20:38.971Z,12.72
2023-02-17T13:23:09.697Z,12.65
2023-02-17T13:25:39.067Z,12.75
2023-02-17T13:28:35.330Z,12.73
2023-02-17T13:31:18.772Z,12.80
2023-02-17T13:33:50.845Z,12.67
2023-02-17T13:36:21.588Z,12.63
2023-02-17T13:39:01.526Z,12.48
2023-02-17T13:41:44.727Z,12.45
2023-02-17T13:44:28.006Z,12.41
2023-02-17T13:47:03.826Z,12.42
2023-02-17T13:49:35.381Z,12.35
2023-02-17T13:52:11.626Z,12.21
2023-02-17T13:54:39.410Z,12.24
2023-02-17T13:57:28.105Z,12.29
2023-02-17T14:00:07.844Z,12.05
2023-02-17T14:02:46.541Z,11.98
2023-02-17T14:05:19.752Z,11.91
2023-02-17T14:07:48.728Z,11.93
2023-02-17T14:10:19.953Z,11.90
2023-02-17T14:12:49.859Z,11.84
2023-02-17T14:15:19.777Z,11.85
2023-02-17T14:17:47.831Z,11.78
2023-02-17T14:20:31.116Z,11.75
2023-02-17T14:23:05.529Z,11.73
2023-02-17T14:25:37.737Z,11.76
2023-02-17T14:28:18.867Z,11.70
2023-02-17T14:30:46.994Z,11.65
2023-02-17T14:33:21.933Z,11.68
2023-02-17T14:35:55.788Z,11.72
2023-02-17T14:38:31.878Z,11.71
2023-02-17T14:41:01.725Z,11.68
2023-02-17T14:43:31.190Z,11.67
2023-02-17T14:45:59.857Z,11.61
2023-02-17T14:48:28.133Z,11.65
2023-02-17T14:50:58.137Z,11.74
2023-02-17T14:53:27.733Z,11.69
2023-02-17T14:56:01.790Z,11.59
2023-02-17T14:58:31.842Z,11.59
2023-02-17T15:01:00.841Z,11.60
2023-02-17T15:03:28.446Z,11.61
2023-02-17T15:05:56.436Z,11.68
2023-02-17T15:08:32.143Z,11.59
2023-02-17T15:11:00.263Z,11.64
2023-02-17T15:13:27.815Z,11.69
2023-02-17T15:15:56.829Z,11.63
2023-02-17T15:18:25.965Z,11.65
2023-02-17T15:20:55.446Z,11.63
2023-02-17T15:23:25.484Z,11.68
2023-02-17T15:25:54.902Z,11.57
2023-02-17T15:28:23.365Z,11.56
2023-02-17T15:30:54.404Z,11.63
2023-02-17T15:33:27.020Z,11.71
2023-02-17T15:35:55.420Z,11.77
2023-02-17T15:38:24.754Z,11.73
2023-02-17T15:41:21.361Z,11.70
2023-02-17T15:43:50.823Z,11.74
2023-02-17T15:46:20.774Z,11.70
2023-02-17T15:48:50.004Z,11.80
2023-02-17T15:51:19.913Z,11.73
2023-02-17T15:53:47.943Z,11.83
2023-02-17T15:56:20.464Z,11.75
2023-02-17T15:58:49.858Z,11.86
2023-02-17T16:01:23.154Z,11.77
2023-02-17T16:03:52.177Z,11.74
2023-02-17T16:06:19.774Z,11.77
2023-02-17T16:08:47.426Z,11.86
2023-02-17T16:11:16.648Z,11.75
2023-02-17T16:13:49.730Z,11.80
2023-02-17T16:16:22.854Z,11.76
2023-02-17T16:18:52.360Z,11.74
2023-02-17T16:21:19.972Z,11.73
2023-02-17T16:23:47.890Z,11.81
2023-02-17T16:26:25.729Z,11.75
2023-02-17T16:28:54.984Z,11.86
2023-02-17T16:31:23.534Z,11.81
2023-02-17T16:33:59.404Z,11.81
2023-02-17T16:36:30.853Z,11.81
2023-02-17T16:38:59.342Z,11.80
2023-02-17T16:41:27.051Z,11.92
2023-02-17T16:43:55.753Z,11.83
2023-02-17T16:46:29.664Z,11.79
2023-02-17T16:49:02.768Z,11.85
2023-02-17T16:51:33.723Z,11.75
2023-02-17T16:54:03.840Z,11.77
2023-02-17T16:56:37.843Z,11.85
2023-02-17T16:59:05.828Z,11.82
2023-02-17T17:01:33.441Z,11.80
2023-02-17T17:04:02.635Z,11.76
2023-02-17T17:06:31.537Z,11.76
2023-02-17T17:08:59.194Z,11.82
2023-02-17T17:11:28.399Z,11.84
2023-02-17T17:13:56.392Z,11.77
2023-02-17T17:16:27.795Z,11.76
2023-02-17T17:18:55.594Z,11.74
2023-02-17T17:21:24.545Z,11.74
2023-02-17T17:23:52.876Z,11.74
2023-02-17T17:26:25.408Z,11.75
2023-02-17T17:28:53.562Z,11.68
2023-02-17T17:31:22.686Z,11.69
2023-02-17T17:33:51.629Z,11.66
2023-02-17T17:36:25.675Z,11.67
2023-02-17T17:38:54.504Z,11.67
2023-02-17T17:41:23.073Z,11.64
2023-02-17T17:43:51.594Z,11.75
2023-02-17T17:46:23.804Z,11.64
2023-02-17T17:48:52.487Z,11.71
2023-02-17T17:51:22.853Z,11.78
2023-02-17T17:53:51.988Z,11.70
2023-02-17T17:56:23.314Z,11.76
2023-02-17T17:58:51.875Z,11.72
2023-02-17T18:01:20.263Z,11.67
2023-02-17T18:03:49.766Z,11.75
2023-02-17T18:06:20.964Z,11.73
2023-02-17T18:08:51.292Z,11.69
2023-02-17T18:11:22.776Z,11.73
2023-02-17T18:13:53.047Z,11.71
2023-02-17T18:16:22.734Z,11.72
2023-02-17T18:18:51.751Z,11.72
2023-02-17T18:21:19.419Z,11.71
2023-02-17T18:23:48.728Z,11.74
2023-02-17T18:26:16.718Z,11.72
2023-02-17T18:28:45.897Z,11.71
2023-02-17T18:31:15.239Z,11.65
2023-02-17T18:33:44.043Z,11.74
2023-02-17T18:36:13.901Z,11.71
2023-02-17T18:38:42.016Z,11.69
2023-02-17T18:41:17.092Z,11.66
2023-02-17T18:43:48.492Z,11.61
2023-02-17T18:46:16.205Z,11.60
2023-02-17T18:48:43.971Z,11.49
2023-02-17T18:51:13.726Z,11.48
2023-02-17T18:53:42.058Z,11.49
2023-02-17T18:56:12.801Z,11.43
2023-02-17T18:58:40.823Z,11.40
2023-02-17T19:01:15.826Z,11.39
2023-02-17T19:03:43.555Z,11.37
2023-02-17T19:06:14.721Z,11.38
2023-02-17T19:08:42.702Z,11.28
2023-02-17T19:11:10.546Z,11.23
2023-02-17T19:13:38.227Z,11.28
2023-02-17T19:16:08.189Z,11.30
2023-02-17T19:18:37.818Z,11.12
2023-02-17T19:21:06.416Z,11.12
2023-02-17T19:23:35.909Z,11.03
2023-02-17T19:26:05.309Z,10.94
2023-02-17T19:28:33.855Z,10.94
2023-02-17T19:31:01.772Z,11.01
2023-02-17T19:33:29.584Z,10.80
2023-02-17T19:35:58.826Z,10.76
2023-02-17T19:38:26.584Z,10.71
2023-02-17T19:40:54.243Z,10.67
2023-02-17T19:43:21.943Z,10.63
2023-02-17T19:45:53.847Z,10.56
2023-02-17T19:48:24.096Z,10.53
2023-02-17T19:50:51.789Z,10.43
2023-02-17T19:53:20.707Z,10.35
2023-02-17T19:55:48.339Z,10.30
2023-02-17T19:58:15.974Z,10.27
2023-02-17T20:00:43.870Z,10.27
2023-02-17T20:03:12.117Z,10.22
2023-02-17T20:05:40.036Z,10.21
2023-02-17T20:08:08.807Z,10.18
2023-02-17T20:10:40.532Z,10.15
2023-02-17T20:13:08.486Z,10.13
2023-02-17T20:15:36.206Z,10.10
2023-02-17T20:18:03.841Z,10.10
2023-02-17T20:20:31.521Z,10.08
2023-02-17T20:22:59.091Z,10.07
2023-02-17T20:25:27.226Z,10.07
2023-02-17T20:27:56.503Z,10.06
2023-02-17T20:30:24.413Z,10.06
2023-02-17T20:32:52.069Z,10.05
2023-02-17T20:35:19.629Z,10.06
2023-02-17T20:37:47.520Z,10.05
2023-02-17T20:40:15.153Z,10.04
2023-02-17T20:42:44.320Z,10.02
2023-02-17T20:45:13.261Z,10.02
2023-02-17T20:47:40.868Z,10.02
2023-02-17T20:50:09.304Z,10.02
2023-02-17T20:52:37.838Z,10.01
2023-02-17T20:55:05.681Z,10.00
2023-02-17T20:57:33.306Z,10.02
2023-02-17T21:00:00.956Z,9.99
2023-02-17T21:02:29.885Z,9.99
2023-02-17T21:04:57.667Z,9.98
2023-02-17T21:07:25.480Z,9.97
2023-02-17T21:09:53.768Z,9.98
2023-02-17T21:12:21.357Z,9.97
2023-02-17T21:14:49.006Z,9.96
2023-02-17T21:17:18.374Z,9.96
2023-02-17T21:19:47.363Z,9.96
2023-02-17T21:22:14.986Z,9.97
2023-02-17T21:24:42.585Z,9.95
2023-02-17T21:27:10.234Z,9.94
2023-02-17T21:29:37.835Z,9.94
2023-02-17T21:32:06.601Z,9.94
2023-02-17T21:34:37.749Z,9.94
2023-02-17T21:37:07.947Z,9.96
2023-02-17T21:39:37.101Z,9.94
2023-02-17T21:42:05.145Z,9.93
2023-02-17T21:44:50.341Z,9.93
2023-02-17T21:47:18.982Z,9.91
2023-02-17T21:49:48.766Z,9.91
2023-02-17T21:52:22.724Z,9.90
2023-02-17T21:54:50.388Z,9.91
2023-02-17T21:57:18.013Z,9.89
2023-02-17T21:59:45.616Z,9.87
2023-02-17T22:02:13.900Z,9.89
2023-02-17T22:04:41.559Z,9.85
2023-02-17T22:07:09.210Z,9.82
2023-02-17T22:09:39.590Z,9.80
2023-02-17T22:12:08.051Z,9.78
2023-02-17T22:14:36.183Z,9.77
2023-02-17T22:17:03.871Z,9.77
2023-02-17T22:19:31.732Z,9.74
2023-02-17T22:21:59.770Z,9.77
2023-02-17T22:24:28.201Z,9.78
2023-02-17T22:26:57.242Z,9.75
2023-02-17T22:29:25.762Z,9.75
2023-02-17T22:31:55.818Z,9.77
2023-02-17T22:34:26.056Z,9.77
2023-02-17T22:36:53.642Z,9.76
2023-02-17T22:39:21.269Z,9.75
2023-02-17T22:41:49.345Z,9.71
2023-02-17T22:44:18.598Z,9.70
2023-02-17T22:46:46.426Z,9.69
2023-02-17T22:49:14.155Z,9.71
2023-02-17T22:51:41.819Z,9.67
2023-02-17T22:54:10.309Z,9.64
2023-02-17T22:56:38.998Z,9.62
2023-02-17T22:59:07.398Z,9.61
2023-02-17T23:01:37.455Z,9.56
2023-02-17T23:04:06.500Z,9.53
2023-02-17T23:06:36.770Z,9.51
2023-02-17T23:09:06.844Z,9.46
2023-02-17T23:11:53.704Z,9.49
2023-02-17T23:14:26.443Z,9.42
2023-02-17T23:16:59.007Z,9.41
2023-02-17T23:19:27.208Z,9.40
2023-02-17T23:21:57.661Z,9.35
2023-02-17T23:24:26.865Z,9.33
2023-02-17T23:26:55.751Z,9.30
2023-02-17T23:29:23.581Z,9.33
2023-02-17T23:31:51.235Z,9.26
2023-02-17T23:34:20.434Z,9.27
2023-02-17T23:36:48.617Z,9.23
2023-02-17T23:39:16.972Z,9.24
2023-02-17T23:41:45.549Z,9.23
2023-02-17T23:44:14.323Z,9.25
2023-02-17T23:46:43.013Z,9.23
2023-02-17T23:49:14.009Z,9.22
2023-02-17T23:51:43.318Z,9.23
2023-02-17T23:54:11.634Z,9.23
2023-02-17T23:56:39.409Z,9.22
2023-02-17T23:59:07.388Z,9.21
